createdAt,value
2019-04-21T00:00:58.542Z,927.93
2019-04-21T00:01:54.563Z,927.92
2019-04-21T00:02:54.224Z,927.89
2019-04-21T00:04:02.537Z,927.90
2019-04-21T00:05:05.768Z,927.92
2019-04-21T00:06:20.132Z,927.96
2019-04-21T00:07:14.460Z,927.98
2019-04-21T00:08:19.409Z,927.99
2019-04-21T00:09:19.299Z,928.01
2019-04-21T00:10:12.173Z,927.98
2019-04-21T00:11:20.714Z,927.98
2019-04-21T00:12:15.352Z,928.02
2019-04-21T00:13:07.816Z,928.02
2019-04-21T00:14:05.993Z,927.98
2019-04-21T00:15:02.196Z,928.01
2019-04-21T00:15:57.920Z,928.02
2019-04-21T00:17:00.559Z,928.03
2019-04-21T00:17:58.858Z,927.99
2019-04-21T00:19:01.039Z,927.99
2019-04-21T00:20:07.629Z,928.00
2019-04-21T00:20:56.348Z,927.99
2019-04-21T00:22:05.927Z,927.99
2019-04-21T00:23:10.638Z,928.00
2019-04-21T00:24:07.646Z,927.99
2019-04-21T00:25:09.416Z,927.96
2019-04-21T00:26:03.006Z,927.97
2019-04-21T00:27:12.470Z,927.95
2019-04-21T00:28:13.976Z,928.01
2019-04-21T00:29:19.186Z,927.93
2019-04-21T00:30:15.898Z,927.97
2019-04-21T00:31:12.616Z,927.98
2019-04-21T00:32:08.667Z,928.00
2019-04-21T00:33:03.308Z,927.94
2019-04-21T00:33:53.763Z,927.93
2019-04-21T00:35:02.523Z,927.92
2019-04-21T00:36:00.753Z,927.98
2019-04-21T00:37:03.098Z,928.00
2019-04-21T00:38:14.645Z,927.99
2019-04-21T00:39:24.818Z,927.97
2019-04-21T00:40:17.937Z,927.98
2019-04-21T00:41:13.702Z,927.92
2019-04-21T00:42:11.238Z,927.96
2019-04-21T00:43:07.845Z,927.93
2019-04-21T00:44:04.561Z,927.89
2019-04-21T00:45:09.563Z,927.90
2019-04-21T00:46:04.758Z,927.86
2019-04-21T00:47:08.502Z,927.89
2019-04-21T00:48:18.005Z,927.86
2019-04-21T00:49:06.124Z,927.91
2019-04-21T00:50:10.999Z,927.88
2019-04-21T00:51:25.022Z,927.86
2019-04-21T00:52:25.194Z,927.88
2019-04-21T00:53:17.300Z,927.83
2019-04-21T00:54:16.738Z,927.85
2019-04-21T00:55:29.636Z,927.87
2019-04-21T00:56:16.647Z,927.87
2019-04-21T00:57:17.505Z,927.87
2019-04-21T00:58:17.534Z,927.86
2019-04-21T00:59:16.383Z,927.85
2019-04-21T01:00:20.273Z,927.81
2019-04-21T01:01:16.143Z,927.80
2019-04-21T01:02:12.717Z,927.80
2019-04-21T01:03:14.634Z,927.82
2019-04-21T01:04:16.818Z,927.81
2019-04-21T01:05:16.593Z,927.80
2019-04-21T01:06:19.141Z,927.75
2019-04-21T01:07:13.278Z,927.77
2019-04-21T01:08:17.671Z,927.82
2019-04-21T01:09:10.344Z,927.79
2019-04-21T01:10:05.218Z,927.80
2019-04-21T01:11:16.500Z,927.77
2019-04-21T01:12:12.543Z,927.81
2019-04-21T01:13:15.935Z,927.80
2019-04-21T01:14:28.055Z,927.86
2019-04-21T01:15:18.471Z,927.82
2019-04-21T01:16:17.503Z,927.82
2019-04-21T01:17:19.130Z,927.86
2019-04-21T01:18:09.198Z,927.83
2019-04-21T01:19:14.330Z,927.79
2019-04-21T01:20:06.513Z,927.77
2019-04-21T01:20:52.001Z,927.76
2019-04-21T01:21:51.981Z,927.73
2019-04-21T01:22:51.954Z,927.76
2019-04-21T01:23:55.710Z,927.74
2019-04-21T01:25:00.050Z,927.73
2019-04-21T01:26:06.359Z,927.76
2019-04-21T01:27:02.376Z,927.75
2019-04-21T01:28:09.927Z,927.74
2019-04-21T01:29:07.021Z,927.75
2019-04-21T01:30:11.501Z,927.77
2019-04-21T01:31:08.806Z,927.78
2019-04-21T01:32:20.525Z,927.81
2019-04-21T01:33:15.338Z,927.78
2019-04-21T01:34:17.043Z,927.84
2019-04-21T01:35:08.733Z,927.82
2019-04-21T01:36:08.271Z,927.80
2019-04-21T01:37:04.608Z,927.79
2019-04-21T01:38:19.039Z,927.80
2019-04-21T01:39:13.490Z,927.72
2019-04-21T01:40:16.529Z,927.78
2019-04-21T01:41:16.314Z,927.76
2019-04-21T01:42:12.627Z,927.77
2019-04-21T01:43:13.379Z,927.73
2019-04-21T01:44:15.515Z,927.78
2019-04-21T01:45:09.898Z,927.76
2019-04-21T01:46:10.941Z,927.78
2019-04-21T01:47:08.609Z,927.70
2019-04-21T01:48:06.544Z,927.67
2019-04-21T01:49:05.598Z,927.66
2019-04-21T01:49:59.263Z,927.64
2019-04-21T01:51:05.118Z,927.69
2019-04-21T01:52:31.220Z,927.69
2019-04-21T01:53:20.999Z,927.75
2019-04-21T01:54:16.010Z,927.72
2019-04-21T01:55:12.334Z,927.72
2019-04-21T01:56:12.080Z,927.70
2019-04-21T01:57:10.450Z,927.68
2019-04-21T01:58:05.985Z,927.69
2019-04-21T01:59:00.850Z,927.68
2019-04-21T02:00:02.311Z,927.68
2019-04-21T02:01:07.265Z,927.61
2019-04-21T02:02:10.996Z,927.67
2019-04-21T02:03:28.185Z,927.73
2019-04-21T02:04:14.065Z,927.71
2019-04-21T02:05:17.463Z,927.75
2019-04-21T02:07:11.278Z,927.77
2019-04-21T02:08:10.877Z,927.71
2019-04-21T02:09:09.797Z,927.69
2019-04-21T02:10:11.173Z,927.70
2019-04-21T02:12:13.374Z,927.71
2019-04-21T02:14:17.484Z,927.71
2019-04-21T02:15:20.161Z,927.70
2019-04-21T02:16:12.514Z,927.73
2019-04-21T02:17:14.822Z,927.68
2019-04-21T02:18:11.917Z,927.73
2019-04-21T02:19:04.442Z,927.77
2019-04-21T02:20:02.609Z,927.76
2019-04-21T02:21:00.402Z,927.77
2019-04-21T02:22:06.480Z,927.75
2019-04-21T02:24:40.056Z,927.65
2019-04-21T02:25:16.324Z,927.70
2019-04-21T02:26:12.737Z,927.73
2019-04-21T02:27:17.407Z,927.74
2019-04-21T02:28:14.296Z,927.70
2019-04-21T02:29:15.438Z,927.72
2019-04-21T02:30:18.315Z,927.71
2019-04-21T02:31:29.073Z,927.73
2019-04-21T02:32:24.374Z,927.70
2019-04-21T02:33:26.166Z,927.68
2019-04-21T02:34:19.193Z,927.64
2019-04-21T02:35:30.378Z,927.73
2019-04-21T02:36:31.958Z,927.68
2019-04-21T02:37:40.332Z,927.68
2019-04-21T02:39:19.255Z,927.70
2019-04-21T02:40:21.259Z,927.71
2019-04-21T02:41:21.397Z,927.64
2019-04-21T02:42:18.653Z,927.64
2019-04-21T02:44:30.205Z,927.66
2019-04-21T02:45:28.417Z,927.68
2019-04-21T02:46:23.719Z,927.64
2019-04-21T02:47:28.562Z,927.68
2019-04-21T02:48:37.084Z,927.72
2019-04-21T02:49:38.208Z,927.69
2019-04-21T02:50:28.239Z,927.74
2019-04-21T02:51:27.850Z,927.72
2019-04-21T02:52:35.457Z,927.69
2019-04-21T02:54:48.340Z,927.66
2019-04-21T02:55:17.604Z,927.74
2019-04-21T02:56:29.907Z,927.73
2019-04-21T02:57:45.479Z,927.71
2019-04-21T02:58:29.405Z,927.72
2019-04-21T03:00:23.826Z,927.74
2019-04-21T03:02:25.085Z,927.66
2019-04-21T03:03:31.686Z,927.70
2019-04-21T03:04:23.384Z,927.73
2019-04-21T03:06:25.183Z,927.72
2019-04-21T03:08:32.172Z,927.70
2019-04-21T03:09:29.049Z,927.72
2019-04-21T03:10:26.631Z,927.69
2019-04-21T03:11:13.542Z,927.66
2019-04-21T03:12:18.106Z,927.66
2019-04-21T03:13:29.728Z,927.65
2019-04-21T03:14:31.146Z,927.70
2019-04-21T03:15:27.338Z,927.72
2019-04-21T03:17:25.257Z,927.65
2019-04-21T03:18:26.441Z,927.69
2019-04-21T03:19:28.536Z,927.66
2019-04-21T03:22:20.785Z,927.70
2019-04-21T03:24:17.361Z,927.71
2019-04-21T03:26:28.537Z,927.67
2019-04-21T03:28:22.279Z,927.68
2019-04-21T03:29:30.993Z,927.66
2019-04-21T03:30:26.297Z,927.63
2019-04-21T03:31:35.290Z,927.61
2019-04-21T03:36:40.098Z,927.54
2019-04-21T03:37:23.498Z,927.58
2019-04-21T03:38:22.329Z,927.56
2019-04-21T03:39:17.960Z,927.57
2019-04-21T03:40:37.921Z,927.55
2019-04-21T03:41:25.648Z,927.53
2019-04-21T03:42:26.880Z,927.48
2019-04-21T03:43:20.400Z,927.47
2019-04-21T03:45:25.006Z,927.45
2019-04-21T03:46:23.095Z,927.45
2019-04-21T03:47:24.906Z,927.51
2019-04-21T03:48:17.222Z,927.47
2019-04-21T03:50:20.558Z,927.48
2019-04-21T03:51:20.185Z,927.44
2019-04-21T03:52:19.371Z,927.44
2019-04-21T03:53:18.566Z,927.46
2019-04-21T03:54:15.538Z,927.47
2019-04-21T03:55:44.725Z,927.39
2019-04-21T03:56:27.815Z,927.39
2019-04-21T03:57:39.264Z,927.43
2019-04-21T03:59:11.736Z,927.45
2019-04-21T04:00:34.686Z,927.42
2019-04-21T04:02:24.998Z,927.33
2019-04-21T04:03:42.083Z,927.32
2019-04-21T04:04:30.794Z,927.35
2019-04-21T04:05:23.877Z,927.32
2019-04-21T04:06:36.191Z,927.34
2019-04-21T04:07:22.931Z,927.30
2019-04-21T04:08:34.420Z,927.32
2019-04-21T04:09:36.788Z,927.35
2019-04-21T04:10:28.936Z,927.31
2019-04-21T04:12:11.336Z,927.30
2019-04-21T04:13:27.628Z,927.32
2019-04-21T04:14:41.800Z,927.31
2019-04-21T04:15:20.537Z,927.33
2019-04-21T04:16:16.988Z,927.31
2019-04-21T04:17:23.934Z,927.30
2019-04-21T04:18:33.899Z,927.29
2019-04-21T04:19:18.021Z,927.29
2019-04-21T04:22:24.743Z,927.25
2019-04-21T04:23:42.423Z,927.17
2019-04-21T04:24:28.492Z,927.22
2019-04-21T04:25:21.019Z,927.22
2019-04-21T04:27:33.736Z,927.24
2019-04-21T04:28:19.079Z,927.23
2019-04-21T04:29:20.360Z,927.25
2019-04-21T04:31:25.949Z,927.22
2019-04-21T04:33:32.305Z,927.22
2019-04-21T04:35:22.087Z,927.20
2019-04-21T04:36:30.174Z,927.19
2019-04-21T04:37:29.560Z,927.16
2019-04-21T04:38:30.096Z,927.17
2019-04-21T04:39:42.778Z,927.16
2019-04-21T04:42:29.916Z,927.12
2019-04-21T04:43:23.301Z,927.07
2019-04-21T04:44:26.517Z,927.11
2019-04-21T04:45:25.719Z,927.14
2019-04-21T04:46:17.821Z,927.12
2019-04-21T04:47:16.720Z,927.07
2019-04-21T04:48:13.584Z,927.07
2019-04-21T04:49:34.367Z,927.03
2019-04-21T04:50:26.335Z,927.06
2019-04-21T04:51:22.980Z,927.04
2019-04-21T04:52:27.131Z,927.04
2019-04-21T04:53:20.108Z,927.04
2019-04-21T04:54:31.718Z,927.09
2019-04-21T04:55:19.016Z,927.06
2019-04-21T04:56:18.210Z,927.07
2019-04-21T04:57:29.095Z,927.04
2019-04-21T04:58:23.469Z,927.06
2019-04-21T05:00:28.128Z,927.09
2019-04-21T05:02:29.953Z,927.10
2019-04-21T05:03:24.398Z,927.10
2019-04-21T05:04:20.533Z,927.03
2019-04-21T05:05:19.512Z,927.02
2019-04-21T05:06:39.203Z,927.00
2019-04-21T05:08:39.559Z,926.97
2019-04-21T05:09:18.540Z,926.98
2019-04-21T05:10:17.292Z,926.97
2019-04-21T05:12:12.003Z,926.94
2019-04-21T05:13:23.791Z,926.94
2019-04-21T05:15:12.646Z,926.95
2019-04-21T05:16:24.338Z,926.93
2019-04-21T05:17:26.641Z,926.92
2019-04-21T05:18:13.560Z,926.89
2019-04-21T05:19:14.585Z,926.89
2019-04-21T05:20:17.024Z,926.82
2019-04-21T05:21:23.280Z,926.82
2019-04-21T05:22:17.205Z,926.86
2019-04-21T05:23:08.918Z,926.85
2019-04-21T05:24:10.910Z,926.77
2019-04-21T05:25:05.685Z,926.80
2019-04-21T05:26:01.326Z,926.77
2019-04-21T05:27:05.026Z,926.73
2019-04-21T05:28:00.060Z,926.78
2019-04-21T05:28:58.823Z,926.79
2019-04-21T05:30:07.149Z,926.78
2019-04-21T05:31:13.053Z,926.72
2019-04-21T05:32:09.308Z,926.74
2019-04-21T05:33:12.425Z,926.72
2019-04-21T05:34:09.471Z,926.74
2019-04-21T05:35:08.210Z,926.71
2019-04-21T05:36:11.387Z,926.67
2019-04-21T05:37:07.212Z,926.71
2019-04-21T05:38:06.214Z,926.68
2019-04-21T05:39:03.882Z,926.68
2019-04-21T05:40:04.444Z,926.67
2019-04-21T05:41:00.205Z,926.67
2019-04-21T05:41:57.960Z,926.65
2019-04-21T05:43:07.898Z,926.65
2019-04-21T05:44:03.765Z,926.66
2019-04-21T05:46:14.272Z,926.61
2019-04-21T05:47:15.756Z,926.66
2019-04-21T05:48:17.105Z,926.64
2019-04-21T05:49:02.887Z,926.67
2019-04-21T05:50:06.513Z,926.62
2019-04-21T05:51:03.625Z,926.63
2019-04-21T05:52:06.670Z,926.61
2019-04-21T05:53:17.640Z,926.66
2019-04-21T05:54:17.781Z,926.63
2019-04-21T05:55:12.355Z,926.63
2019-04-21T05:56:10.019Z,926.65
2019-04-21T05:57:05.920Z,926.65
2019-04-21T05:58:07.054Z,926.64
2019-04-21T05:59:07.939Z,926.64
2019-04-21T06:00:10.129Z,926.63
2019-04-21T06:01:14.852Z,926.72
2019-04-21T06:02:21.018Z,926.69
2019-04-21T06:03:11.577Z,926.72
2019-04-21T06:04:16.856Z,926.68
2019-04-21T06:05:24.619Z,926.75
2019-04-21T06:06:15.140Z,926.74
2019-04-21T06:07:13.954Z,926.72
2019-04-21T06:08:07.773Z,926.73
2019-04-21T06:09:13.115Z,926.70
2019-04-21T06:10:05.445Z,926.68
2019-04-21T06:11:10.359Z,926.71
2019-04-21T06:12:08.428Z,926.69
2019-04-21T06:13:16.440Z,926.70
2019-04-21T06:14:08.237Z,926.66
2019-04-21T06:15:12.247Z,926.65
2019-04-21T06:16:07.517Z,926.65
2019-04-21T06:17:11.016Z,926.65
2019-04-21T06:18:13.533Z,926.59
2019-04-21T06:19:03.423Z,926.64
2019-04-21T06:20:10.496Z,926.58
2019-04-21T06:21:23.344Z,926.59
2019-04-21T06:22:11.955Z,926.59
2019-04-21T06:23:02.928Z,926.57
2019-04-21T06:24:03.825Z,926.61
2019-04-21T06:25:34.969Z,926.61
2019-04-21T06:27:11.614Z,926.53
2019-04-21T06:28:13.399Z,926.53
2019-04-21T06:29:13.495Z,926.51
2019-04-21T06:30:04.015Z,926.45
2019-04-21T06:31:12.596Z,926.47
2019-04-21T06:32:59.442Z,926.36
2019-04-21T06:34:09.039Z,926.33
2019-04-21T06:35:20.755Z,926.32
2019-04-21T06:36:24.121Z,926.37
2019-04-21T06:37:21.661Z,926.35
2019-04-21T06:38:13.130Z,926.37
2019-04-21T06:39:28.305Z,926.38
2019-04-21T06:41:16.381Z,926.36
2019-04-21T06:42:05.298Z,926.40
2019-04-21T06:43:17.979Z,926.37
2019-04-21T06:45:32.121Z,926.29
2019-04-21T06:46:17.809Z,926.26
2019-04-21T06:47:05.983Z,926.31
2019-04-21T06:48:11.231Z,926.32
2019-04-21T06:49:06.737Z,926.27
2019-04-21T06:50:07.664Z,926.32
2019-04-21T06:51:10.638Z,926.32
2019-04-21T06:52:18.049Z,926.35
2019-04-21T06:53:05.580Z,926.31
2019-04-21T06:54:23.881Z,926.36
2019-04-21T06:55:12.136Z,926.33
2019-04-21T06:56:06.092Z,926.35
2019-04-21T06:57:18.662Z,926.31
2019-04-21T06:58:06.654Z,926.29
2019-04-21T06:59:06.975Z,926.31
2019-04-21T07:00:06.475Z,926.33
2019-04-21T07:01:11.748Z,926.34
2019-04-21T07:02:26.348Z,926.30
2019-04-21T07:03:15.577Z,926.29
2019-04-21T07:04:13.463Z,926.25
2019-04-21T07:05:07.912Z,926.23
2019-04-21T07:06:09.476Z,926.26
2019-04-21T07:07:05.652Z,926.30
2019-04-21T07:08:23.307Z,926.35
2019-04-21T07:09:16.036Z,926.31
2019-04-21T07:11:04.159Z,926.33
2019-04-21T07:12:09.611Z,926.38
2019-04-21T07:13:03.738Z,926.35
2019-04-21T07:15:03.363Z,926.36
2019-04-21T07:16:13.835Z,926.33
2019-04-21T07:17:11.549Z,926.35
2019-04-21T07:18:08.991Z,926.33
2019-04-21T07:19:13.238Z,926.39
2019-04-21T07:20:12.506Z,926.38
2019-04-21T07:21:06.499Z,926.40
2019-04-21T07:22:03.096Z,926.41
2019-04-21T07:23:10.503Z,926.41
2019-04-21T07:24:05.829Z,926.46
2019-04-21T07:25:10.545Z,926.44
2019-04-21T07:26:05.755Z,926.49
2019-04-21T07:27:08.838Z,926.49
2019-04-21T07:28:02.929Z,926.53
2019-04-21T07:29:12.158Z,926.52
2019-04-21T07:30:05.007Z,926.54
2019-04-21T07:31:09.945Z,926.58
2019-04-21T07:32:22.177Z,926.59
2019-04-21T07:33:24.054Z,926.56
2019-04-21T07:34:10.186Z,926.60
2019-04-21T07:36:06.459Z,926.63
2019-04-21T07:37:20.345Z,926.67
2019-04-21T07:38:02.982Z,926.69
2019-04-21T07:39:01.939Z,926.68
2019-04-21T07:40:01.723Z,926.67
2019-04-21T07:40:59.474Z,926.69
2019-04-21T07:42:02.182Z,926.75
2019-04-21T07:42:58.814Z,926.74
2019-04-21T07:44:01.731Z,926.73
2019-04-21T07:45:00.786Z,926.75
2019-04-21T07:46:28.983Z,926.75
2019-04-21T07:47:00.128Z,926.79
2019-04-21T07:48:01.655Z,926.76
2019-04-21T07:49:07.909Z,926.82
2019-04-21T07:50:00.631Z,926.84
2019-04-21T07:51:04.373Z,926.80
2019-04-21T07:52:03.166Z,926.82
2019-04-21T07:53:08.575Z,926.80
2019-04-21T07:54:13.755Z,926.80
2019-04-21T07:55:21.589Z,926.80
2019-04-21T07:55:46.948Z,926.78
2019-04-21T07:56:57.092Z,926.80
2019-04-21T07:58:17.717Z,926.83
2019-04-21T07:59:03.829Z,926.78
2019-04-21T08:00:15.041Z,926.80
2019-04-21T08:01:04.289Z,926.79
2019-04-21T08:02:01.001Z,926.78
2019-04-21T08:03:19.297Z,926.73
2019-04-21T08:04:08.506Z,926.72
2019-04-21T08:05:14.625Z,926.71
2019-04-21T08:06:02.137Z,926.69
2019-04-21T08:07:04.892Z,926.65
2019-04-21T08:08:15.833Z,926.62
2019-04-21T08:09:01.061Z,926.59
2019-04-21T08:09:58.455Z,926.63
2019-04-21T08:11:04.527Z,926.55
2019-04-21T08:11:58.934Z,926.62
2019-04-21T08:13:03.716Z,926.56
2019-04-21T08:14:01.093Z,926.62
2019-04-21T08:15:13.998Z,926.61
2019-04-21T08:16:07.348Z,926.65
2019-04-21T08:17:06.012Z,926.71
2019-04-21T08:18:03.720Z,926.73
2019-04-21T08:19:09.599Z,926.76
2019-04-21T08:19:58.969Z,926.77
2019-04-21T08:21:02.457Z,926.76
2019-04-21T08:22:09.554Z,926.78
2019-04-21T08:23:04.650Z,926.77
2019-04-21T08:24:00.601Z,926.80
2019-04-21T08:25:02.947Z,926.80
2019-04-21T08:26:04.888Z,926.85
2019-04-21T08:27:04.908Z,926.88
2019-04-21T08:28:21.030Z,926.88
2019-04-21T08:29:15.894Z,926.85
2019-04-21T08:30:09.071Z,926.84
2019-04-21T08:31:01.292Z,926.84
2019-04-21T08:33:07.866Z,926.81
2019-04-21T08:34:07.698Z,926.83
2019-04-21T08:35:20.880Z,926.82
2019-04-21T08:37:05.483Z,926.76
2019-04-21T08:38:05.243Z,926.81
2019-04-21T08:38:59.736Z,926.83
2019-04-21T08:41:11.095Z,926.88
2019-04-21T08:42:04.428Z,926.86
2019-04-21T08:43:03.739Z,926.95
2019-04-21T08:43:55.932Z,926.95
2019-04-21T08:45:00.189Z,926.95
2019-04-21T08:46:01.985Z,926.99
2019-04-21T08:47:07.470Z,926.99
2019-04-21T08:48:04.311Z,926.99
2019-04-21T08:49:06.230Z,926.97
2019-04-21T08:50:03.453Z,926.98
2019-04-21T08:51:18.854Z,926.95
2019-04-21T08:52:11.727Z,926.97
2019-04-21T08:53:02.340Z,926.94
2019-04-21T08:54:03.916Z,926.93
2019-04-21T08:55:03.620Z,926.92
2019-04-21T08:56:05.786Z,926.98
2019-04-21T08:57:02.483Z,926.98
2019-04-21T08:58:14.145Z,926.98
2019-04-21T08:59:03.785Z,926.96
2019-04-21T09:00:08.787Z,927.02
2019-04-21T09:01:02.429Z,927.01
2019-04-21T09:02:02.502Z,926.97
2019-04-21T09:03:02.576Z,926.99
2019-04-21T09:03:59.944Z,926.95
2019-04-21T09:05:00.214Z,926.97
2019-04-21T09:06:08.036Z,926.91
2019-04-21T09:08:03.907Z,926.88
2019-04-21T09:09:05.039Z,926.81
2019-04-21T09:09:59.328Z,926.80
2019-04-21T09:11:00.740Z,926.76
2019-04-21T09:11:59.715Z,926.73
2019-04-21T09:13:01.343Z,926.71
2019-04-21T09:14:01.360Z,926.71
2019-04-21T09:15:05.757Z,926.76
2019-04-21T09:15:58.005Z,926.78
2019-04-21T09:16:56.585Z,926.76
2019-04-21T09:17:53.464Z,926.74
2019-04-21T09:18:54.379Z,926.72
2019-04-21T09:20:07.608Z,926.73
2019-04-21T09:21:10.997Z,926.78
2019-04-21T09:22:00.620Z,926.78
2019-04-21T09:23:03.588Z,926.79
2019-04-21T09:23:56.002Z,926.78
2019-04-21T09:25:53.053Z,926.80
2019-04-21T09:25:57.433Z,926.81
2019-04-21T09:26:57.892Z,926.82
2019-04-21T09:28:02.330Z,926.82
2019-04-21T09:28:52.120Z,926.79
2019-04-21T09:29:46.797Z,926.81
2019-04-21T09:30:48.864Z,926.79
2019-04-21T09:31:44.449Z,926.80
2019-04-21T09:32:42.455Z,926.80
2019-04-21T09:33:47.356Z,926.81
2019-04-21T09:34:44.175Z,926.76
2019-04-21T09:35:50.123Z,926.78
2019-04-21T09:36:46.741Z,926.79
2019-04-21T09:37:50.457Z,926.81
2019-04-21T09:38:43.622Z,926.80
2019-04-21T09:39:46.465Z,926.84
2019-04-21T09:40:47.440Z,926.78
2019-04-21T09:41:41.594Z,926.86
2019-04-21T09:42:50.364Z,926.78
2019-04-21T09:43:46.552Z,926.77
2019-04-21T09:44:45.422Z,926.79
2019-04-21T09:45:40.953Z,926.90
2019-04-21T09:46:47.786Z,926.91
2019-04-21T09:47:48.522Z,926.94
2019-04-21T09:48:49.795Z,926.95
2019-04-21T09:49:41.902Z,927.01
2019-04-21T09:50:41.444Z,926.99
2019-04-21T09:51:41.717Z,927.07
2019-04-21T09:52:48.916Z,927.12
2019-04-21T09:53:42.878Z,927.11
2019-04-21T09:54:52.097Z,927.13
2019-04-21T09:55:48.766Z,927.19
2019-04-21T09:56:49.996Z,927.24
2019-04-21T09:57:47.499Z,927.25
2019-04-21T09:58:46.169Z,927.24
2019-04-21T09:59:47.627Z,927.26
2019-04-21T10:00:52.425Z,927.27
2019-04-21T10:01:55.907Z,927.27
2019-04-21T10:02:51.612Z,927.34
2019-04-21T10:03:46.472Z,927.35
2019-04-21T10:04:40.556Z,927.32
2019-04-21T10:05:41.602Z,927.40
2019-04-21T10:06:40.514Z,927.38
2019-04-21T10:07:42.900Z,927.44
2019-04-21T10:08:40.481Z,927.45
2019-04-21T10:09:40.454Z,927.48
2019-04-21T10:10:40.427Z,927.44
2019-04-21T10:11:41.585Z,927.43
2019-04-21T10:12:41.060Z,927.51
2019-04-21T10:13:40.370Z,927.47
2019-04-21T10:14:40.956Z,927.53
2019-04-21T10:15:40.339Z,927.58
2019-04-21T10:16:40.618Z,927.56
2019-04-21T10:17:41.680Z,927.54
2019-04-21T10:18:40.370Z,927.55
2019-04-21T10:19:40.258Z,927.52
2019-04-21T10:20:40.637Z,927.50
2019-04-21T10:21:40.360Z,927.44
2019-04-21T10:22:41.326Z,927.42
2019-04-21T10:23:41.510Z,927.45
2019-04-21T10:24:40.541Z,927.43
2019-04-21T10:25:40.949Z,927.39
2019-04-21T10:26:40.987Z,927.37
2019-04-21T10:27:41.241Z,927.40
2019-04-21T10:28:41.337Z,927.38
2019-04-21T10:29:43.110Z,927.44
2019-04-21T10:30:40.714Z,927.41
2019-04-21T10:31:40.792Z,927.47
2019-04-21T10:32:40.602Z,927.50
2019-04-21T10:33:40.091Z,927.52
2019-04-21T10:34:41.096Z,927.60
2019-04-21T10:35:41.201Z,927.56
2019-04-21T10:36:40.787Z,927.60
2019-04-21T10:37:49.779Z,927.63
2019-04-21T10:38:44.668Z,927.60
2019-04-21T10:39:40.022Z,927.67
2019-04-21T10:40:41.250Z,927.68
2019-04-21T10:41:39.853Z,927.64
2019-04-21T10:42:40.426Z,927.66
2019-04-21T10:43:41.003Z,927.67
2019-04-21T10:44:40.926Z,927.72
2019-04-21T10:45:40.978Z,927.74
2019-04-21T10:46:40.592Z,927.76
2019-04-21T10:47:41.012Z,927.81
2019-04-21T10:48:40.972Z,927.83
2019-04-21T10:49:40.309Z,927.87
2019-04-21T10:50:41.069Z,927.85
2019-04-21T10:51:39.705Z,927.88
2019-04-21T10:52:40.635Z,927.85
2019-04-21T10:53:40.822Z,927.82
2019-04-21T10:55:05.579Z,927.81
2019-04-21T10:55:55.739Z,927.79
2019-04-21T10:56:43.652Z,927.86
2019-04-21T10:57:40.291Z,927.81
2019-04-21T10:58:40.495Z,927.82
2019-04-21T10:59:47.071Z,927.81
2019-04-21T11:00:39.931Z,927.82
2019-04-21T11:01:41.050Z,927.85
2019-04-21T11:02:39.522Z,927.86
2019-04-21T11:03:40.519Z,927.90
2019-04-21T11:04:40.595Z,927.89
2019-04-21T11:05:40.695Z,927.88
2019-04-21T11:06:39.446Z,927.91
2019-04-21T11:07:53.090Z,927.87
2019-04-21T11:08:44.037Z,927.86
2019-04-21T11:09:40.197Z,927.89
2019-04-21T11:10:40.010Z,927.86
2019-04-21T11:11:39.735Z,927.82
2019-04-21T11:12:40.958Z,927.86
2019-04-21T11:13:39.349Z,927.86
2019-04-21T11:14:39.338Z,927.87
2019-04-21T11:15:39.322Z,927.88
2019-04-21T11:16:39.290Z,927.88
2019-04-21T11:17:41.796Z,927.94
2019-04-21T11:18:39.893Z,927.96
2019-04-21T11:19:39.260Z,927.98
2019-04-21T11:20:40.498Z,928.05
2019-04-21T11:21:39.240Z,928.12
2019-04-21T11:22:40.109Z,928.09
2019-04-21T11:23:40.367Z,928.15
2019-04-21T11:24:39.164Z,928.08
2019-04-21T11:25:39.970Z,928.08
2019-04-21T11:26:40.120Z,928.03
2019-04-21T11:27:40.540Z,928.06
2019-04-21T11:28:39.117Z,928.04
2019-04-21T11:29:39.268Z,928.06
2019-04-21T11:30:39.095Z,928.05
2019-04-21T11:31:39.074Z,928.08
2019-04-21T11:32:41.619Z,928.05
2019-04-21T11:33:39.551Z,928.12
2019-04-21T11:34:39.055Z,928.10
2019-04-21T11:35:39.357Z,928.08
2019-04-21T11:36:40.385Z,928.11
2019-04-21T11:37:39.912Z,928.13
2019-04-21T11:38:54.180Z,928.07
2019-04-21T11:39:49.062Z,928.13
2019-04-21T11:40:39.956Z,928.12
2019-04-21T11:41:39.375Z,928.17
2019-04-21T11:42:39.764Z,928.18
2019-04-21T11:43:39.210Z,928.18
2019-04-21T11:44:39.514Z,928.19
2019-04-21T11:45:40.078Z,928.19
2019-04-21T11:46:38.856Z,928.25
2019-04-21T11:47:38.839Z,928.26
2019-04-21T11:48:39.975Z,928.25
2019-04-21T11:49:39.061Z,928.31
2019-04-21T11:50:39.190Z,928.35
2019-04-21T11:51:38.792Z,928.34
2019-04-21T11:52:38.931Z,928.40
2019-04-21T11:53:39.144Z,928.39
2019-04-21T11:54:38.739Z,928.43
2019-04-21T11:55:42.969Z,928.41
2019-04-21T11:56:38.945Z,928.47
2019-04-21T11:57:42.804Z,928.53
2019-04-21T11:58:39.512Z,928.48
2019-04-21T11:59:39.664Z,928.46
2019-04-21T12:00:39.829Z,928.47
2019-04-21T12:01:39.428Z,928.46
2019-04-21T12:02:39.580Z,928.41
2019-04-21T12:03:39.956Z,928.41
2019-04-21T12:04:39.325Z,928.42
2019-04-21T12:05:39.494Z,928.47
2019-04-21T12:06:43.627Z,928.45
2019-04-21T12:07:38.569Z,928.49
2019-04-21T12:08:43.954Z,928.48
2019-04-21T12:09:39.579Z,928.53
2019-04-21T12:10:39.706Z,928.55
2019-04-21T12:11:39.039Z,928.61
2019-04-21T12:12:39.253Z,928.62
2019-04-21T12:13:38.497Z,928.66
2019-04-21T12:14:39.627Z,928.73
2019-04-21T12:15:39.021Z,928.69
2019-04-21T12:16:39.144Z,928.72
2019-04-21T12:17:39.503Z,928.70
2019-04-21T12:18:38.826Z,928.73
2019-04-21T12:19:38.729Z,928.74
2019-04-21T12:20:39.625Z,928.72
2019-04-21T12:21:50.595Z,928.72
2019-04-21T12:22:39.086Z,928.75
2019-04-21T12:23:38.523Z,928.70
2019-04-21T12:24:39.575Z,928.69
2019-04-21T12:25:39.002Z,928.62
2019-04-21T12:26:38.350Z,928.66
2019-04-21T12:27:38.301Z,928.65
2019-04-21T12:28:39.696Z,928.64
2019-04-21T12:29:39.801Z,928.59
2019-04-21T12:30:38.270Z,928.63
2019-04-21T12:31:39.268Z,928.63
2019-04-21T12:32:38.268Z,928.62
2019-04-21T12:33:38.245Z,928.67
2019-04-21T12:34:39.590Z,928.68
2019-04-21T12:35:38.208Z,928.66
2019-04-21T12:36:38.203Z,928.67
2019-04-21T12:37:38.206Z,928.67
2019-04-21T12:38:44.756Z,928.69
2019-04-21T12:39:38.756Z,928.67
2019-04-21T12:40:38.856Z,928.72
2019-04-21T12:41:38.458Z,928.72
2019-04-21T12:42:39.300Z,928.79
2019-04-21T12:43:38.960Z,928.85
2019-04-21T12:44:39.150Z,928.77
2019-04-21T12:45:38.085Z,928.81
2019-04-21T12:46:38.215Z,928.81
2019-04-21T12:47:38.083Z,928.85
2019-04-21T12:48:38.107Z,928.81
2019-04-21T12:49:38.248Z,928.79
2019-04-21T12:50:39.468Z,928.79
2019-04-21T12:51:38.035Z,928.80
2019-04-21T12:52:38.021Z,928.76
2019-04-21T12:53:39.128Z,928.76
2019-04-21T12:54:37.987Z,928.68
2019-04-21T12:55:43.748Z,928.69
2019-04-21T12:56:38.004Z,928.63
2019-04-21T12:57:39.160Z,928.60
2019-04-21T12:58:39.463Z,928.56
2019-04-21T12:59:39.505Z,928.59
2019-04-21T13:00:38.891Z,928.61
2019-04-21T13:01:39.007Z,928.57
2019-04-21T13:02:37.982Z,928.60
2019-04-21T13:03:37.880Z,928.59
2019-04-21T13:04:37.933Z,928.63
2019-04-21T13:05:37.994Z,928.59
2019-04-21T13:06:37.842Z,928.61
2019-04-21T13:07:37.810Z,928.68
2019-04-21T13:08:45.619Z,928.66
2019-04-21T13:09:37.802Z,928.64
2019-04-21T13:10:38.111Z,928.71
2019-04-21T13:11:37.775Z,928.68
2019-04-21T13:12:38.002Z,928.55
2019-04-21T13:13:37.768Z,928.59
2019-04-21T13:14:37.936Z,928.57
2019-04-21T13:15:37.771Z,928.55
2019-04-21T13:16:37.752Z,928.57
2019-04-21T13:17:37.673Z,928.55
2019-04-21T13:18:37.692Z,928.53
2019-04-21T13:19:38.962Z,928.50